Time;durP1;ratioP1;P1;durP2;ratioP2;P2;SDS_P1;SDS_P2;PMS_P1;PMS_P2;Temp;Humidity;BMP_temperature;BMP_pressure;BME280_temperature;BME280_humidity;BME280_pressure;Samples;Min_cycle;Max_cycle;Signal;HPM_P1;HPM_P2
2020/12/02 00:00:13;;;;;;;334.48;59.72;;;1.40;99.90;;;;;;4934010;29;20250;-77
2020/12/02 00:02:49;;;;;;;382.58;59.90;;;1.40;99.90;;;;;;4951161;29;20415;-76
2020/12/02 00:05:16;;;;;;;363.08;57.85;;;1.40;99.90;;;;;;4944016;29;20152;-76
2020/12/02 00:07:46;;;;;;;302.13;52.22;;;1.40;99.90;;;;;;4951071;29;20039;-76
2020/12/02 00:10:12;;;;;;;350.75;56.00;;;1.40;99.90;;;;;;4939967;29;20532;-77
2020/12/02 00:12:37;;;;;;;381.67;61.17;;;1.40;99.90;;;;;;4945810;29;20058;-76
2020/12/02 00:15:06;;;;;;;342.75;56.85;;;1.40;99.90;;;;;;4942572;29;20036;-76
2020/12/02 00:17:32;;;;;;;357.20;60.20;;;1.40;99.90;;;;;;4951133;29;20141;-76
2020/12/02 00:19:58;;;;;;;384.13;58.17;;;1.40;99.90;;;;;;4950694;29;20540;-77
2020/12/02 00:22:24;;;;;;;468.90;64.13;;;1.40;99.90;;;;;;4958517;29;20524;-77
2020/12/02 00:24:51;;;;;;;419.70;59.22;;;1.40;99.90;;;;;;4952294;29;20444;-77
2020/12/02 00:27:19;;;;;;;383.70;59.15;;;1.40;99.90;;;;;;4950971;29;20027;-77
2020/12/02 00:29:45;;;;;;;346.77;53.50;;;1.50;99.90;;;;;;5000909;28;20137;-76
2020/12/02 00:32:30;;;;;;;281.98;46.13;;;1.40;99.90;;;;;;5010430;28;20072;-76
2020/12/02 00:34:57;;;;;;;417.67;56.47;;;1.40;99.90;;;;;;5010303;28;20026;-76
2020/12/02 00:37:24;;;;;;;388.85;58.20;;;1.40;99.90;;;;;;4994061;28;20546;-76
2020/12/02 00:39:49;;;;;;;371.48;58.35;;;1.40;99.90;;;;;;5010853;28;20047;-76
2020/12/02 00:42:15;;;;;;;359.55;58.78;;;1.40;99.90;;;;;;5006545;28;20421;-75
2020/12/02 00:44:41;;;;;;;311.02;57.08;;;1.40;99.90;;;;;;5007478;28;20428;-75
2020/12/02 00:47:15;;;;;;;258.08;49.35;;;1.40;99.90;;;;;;4996404;28;20066;-76
2020/12/02 00:49:40;;;;;;;385.77;59.60;;;1.40;99.90;;;;;;5011071;28;20029;-77
2020/12/02 00:52:07;;;;;;;369.58;61.00;;;1.40;99.90;;;;;;5009670;28;20510;-77
2020/12/02 00:54:35;;;;;;;357.20;61.30;;;1.40;99.90;;;;;;5010919;28;20034;-77
2020/12/02 00:57:00;;;;;;;318.25;57.10;;;1.30;99.90;;;;;;4992585;28;20034;-77
2020/12/02 00:59:29;;;;;;;278.23;51.45;;;1.30;99.90;;;;;;5011012;28;20375;-77
2020/12/02 01:02:07;;;;;;;325.27;60.42;;;1.40;99.90;;;;;;5011084;28;20383;-76
2020/12/02 01:04:35;;;;;;;324.20;58.53;;;1.40;99.90;;;;;;5011196;28;20352;-77
2020/12/02 01:07:01;;;;;;;322.63;60.78;;;1.40;99.90;;;;;;5010210;28;20085;-77
2020/12/02 01:09:27;;;;;;;396.40;62.67;;;1.30;99.90;;;;;;5010928;28;20061;-77
2020/12/02 01:11:56;;;;;;;305.08;56.38;;;1.30;99.90;;;;;;5009742;28;20505;-77
2020/12/02 01:14:25;;;;;;;350.23;59.00;;;1.30;99.90;;;;;;4993328;28;20033;-77
2020/12/02 01:16:53;;;;;;;296.27;52.13;;;1.30;99.90;;;;;;5010339;28;20029;-75
2020/12/02 01:19:26;;;;;;;273.20;52.08;;;1.30;99.90;;;;;;5010239;28;20112;-77
2020/12/02 01:22:41;;;;;;;321.55;56.20;;;1.30;99.90;;;;;;5003503;28;20038;-76
2020/12/02 01:25:17;;;;;;;293.38;50.20;;;1.30;99.90;;;;;;4937133;28;20521;-76
2020/12/02 01:27:56;;;;;;;309.08;55.88;;;1.30;99.90;;;;;;4984483;28;20169;-76
2020/12/02 01:30:22;;;;;;;386.00;60.50;;;1.20;99.90;;;;;;5010085;28;20092;-76
2020/12/02 01:32:47;;;;;;;333.10;54.67;;;1.20;99.90;;;;;;5010175;28;20030;-76
2020/12/02 01:35:19;;;;;;;334.55;56.55;;;1.30;99.90;;;;;;5009443;28;20030;-76
2020/12/02 01:37:46;;;;;;;262.27;48.65;;;1.30;99.90;;;;;;5010256;28;20089;-75
2020/12/02 01:40:31;;;;;;;327.67;56.20;;;1.30;99.90;;;;;;5009202;28;20025;-75
2020/12/02 01:43:10;;;;;;;300.13;53.28;;;1.30;99.90;;;;;;5009371;28;20041;-76
2020/12/02 01:46:10;;;;;;;341.70;58.03;;;1.30;99.90;;;;;;5005612;28;20046;-75
2020/12/02 01:48:55;;;;;;;334.77;54.03;;;1.20;99.90;;;;;;4989236;28;20806;-75
2020/12/02 01:51:48;;;;;;;286.05;52.80;;;1.30;99.90;;;;;;5003283;28;20025;-76
2020/12/02 01:54:27;;;;;;;317.25;55.83;;;1.30;99.90;;;;;;5000662;28;20508;-76
2020/12/02 01:57:01;;;;;;;296.98;53.75;;;1.30;99.90;;;;;;5009224;28;20060;-76
2020/12/02 02:00:12;;;;;;;287.05;51.45;;;1.30;99.90;;;;;;4991449;28;20062;-76
2020/12/02 02:02:56;;;;;;;306.27;51.88;;;1.30;99.90;;;;;;5017503;28;20034;-76
2020/12/02 02:05:37;;;;;;;222.50;45.90;;;1.30;99.90;;;;;;5010541;28;20541;-76
2020/12/02 02:08:03;;;;;;;192.38;41.20;;;1.30;99.90;;;;;;5009817;28;20026;-76
2020/12/02 02:10:35;;;;;;;318.23;55.60;;;1.20;99.90;;;;;;5009498;28;20096;-76
2020/12/02 02:13:38;;;;;;;288.95;54.30;;;1.20;99.90;;;;;;5009359;28;20113;-76
2020/12/02 02:16:27;;;;;;;266.40;49.05;;;1.20;99.90;;;;;;5009028;28;20049;-76
2020/12/02 02:18:53;;;;;;;323.87;55.23;;;1.30;99.90;;;;;;5008854;28;20355;-76
2020/12/02 02:21:33;;;;;;;286.58;51.78;;;1.20;99.90;;;;;;5009409;28;20030;-76
2020/12/02 02:23:59;;;;;;;332.85;54.85;;;1.30;99.90;;;;;;5008865;28;20101;-76
2020/12/02 02:26:33;;;;;;;282.52;52.10;;;1.20;99.90;;;;;;5001845;28;20412;-76
2020/12/02 02:29:06;;;;;;;297.60;56.13;;;1.20;99.90;;;;;;5008784;28;20050;-76
2020/12/02 02:31:39;;;;;;;301.60;51.78;;;1.20;99.90;;;;;;5009788;28;20060;-76
2020/12/02 02:34:08;;;;;;;370.70;62.17;;;1.20;99.90;;;;;;4991021;28;20034;-76
2020/12/02 02:36:33;;;;;;;362.48;62.97;;;1.20;99.90;;;;;;5009590;28;20405;-76
2020/12/02 02:38:59;;;;;;;348.55;60.75;;;1.20;99.90;;;;;;5007843;28;20030;-76
2020/12/02 02:41:27;;;;;;;231.40;50.42;;;1.20;99.90;;;;;;4989266;28;20037;-76
2020/12/02 02:43:54;;;;;;;320.98;55.38;;;1.20;99.90;;;;;;5009147;28;20022;-76
2020/12/02 02:46:19;;;;;;;301.38;56.22;;;1.20;99.90;;;;;;5001240;28;20034;-76
2020/12/02 02:48:46;;;;;;;406.05;62.30;;;1.20;99.90;;;;;;5009386;28;20399;-76
2020/12/02 02:51:12;;;;;;;387.35;61.67;;;1.20;99.90;;;;;;5008230;28;20331;-76
2020/12/02 02:53:38;;;;;;;385.95;61.05;;;1.20;99.90;;;;;;5009519;28;20125;-76
2020/12/02 02:56:04;;;;;;;283.33;56.15;;;1.20;99.90;;;;;;5008634;28;20030;-76
2020/12/02 02:58:30;;;;;;;374.15;58.90;;;1.20;99.90;;;;;;5013239;28;20057;-76
2020/12/02 03:00:58;;;;;;;298.45;53.75;;;1.20;99.90;;;;;;5011646;28;20435;-76
2020/12/02 03:03:30;;;;;;;307.92;57.10;;;1.20;99.90;;;;;;5012723;28;20026;-76
2020/12/02 03:05:57;;;;;;;244.82;48.92;;;1.20;99.90;;;;;;5004776;28;20057;-76
2020/12/02 03:08:23;;;;;;;258.17;47.53;;;1.20;99.90;;;;;;5013203;28;20419;-76
2020/12/02 03:10:49;;;;;;;323.60;52.75;;;1.20;99.90;;;;;;4995083;28;20041;-76
2020/12/02 03:13:35;;;;;;;316.60;54.22;;;1.20;99.90;;;;;;5012431;28;20057;-76
2020/12/02 03:16:04;;;;;;;289.17;50.47;;;1.20;99.90;;;;;;4993287;28;20044;-76
2020/12/02 03:18:30;;;;;;;329.60;53.53;;;1.30;99.90;;;;;;5006480;28;20030;-76
2020/12/02 03:20:59;;;;;;;342.88;54.42;;;1.20;99.90;;;;;;5011784;28;20494;-76
2020/12/02 03:23:26;;;;;;;308.58;52.47;;;1.30;99.90;;;;;;4995239;28;20475;-76
2020/12/02 03:25:52;;;;;;;322.70;56.35;;;1.30;99.90;;;;;;5012205;28;20826;-76
2020/12/02 03:28:18;;;;;;;332.42;57.20;;;1.20;99.90;;;;;;5012181;28;20033;-76
2020/12/02 03:30:44;;;;;;;274.45;51.08;;;1.20;99.90;;;;;;4994818;28;20029;-76
2020/12/02 03:33:13;;;;;;;319.20;54.95;;;1.20;99.90;;;;;;4994050;28;20646;-76
2020/12/02 03:35:39;;;;;;;294.65;54.13;;;1.20;99.90;;;;;;5011948;28;20030;-76
2020/12/02 03:38:05;;;;;;;274.58;52.83;;;1.30;99.90;;;;;;4993994;28;20034;-76
2020/12/02 03:40:31;;;;;;;315.40;55.20;;;1.30;99.90;;;;;;5012502;28;20041;-76
2020/12/02 03:42:57;;;;;;;270.92;49.13;;;1.20;99.90;;;;;;5018872;28;20030;-76
2020/12/02 03:45:23;;;;;;;283.50;50.92;;;1.30;99.90;;;;;;5011399;28;20097;-76
2020/12/02 03:47:49;;;;;;;316.67;55.67;;;1.30;99.90;;;;;;5007999;28;20029;-76
2020/12/02 03:50:14;;;;;;;321.23;51.63;;;1.20;99.90;;;;;;5011143;28;20112;-74
2020/12/02 03:52:40;;;;;;;254.25;48.28;;;1.20;99.90;;;;;;5012040;28;20586;-76
2020/12/02 03:55:07;;;;;;;386.17;57.38;;;1.30;99.90;;;;;;4993750;28;20030;-75
2020/12/02 03:57:34;;;;;;;284.55;50.85;;;1.20;99.90;;;;;;5011583;28;20113;-76
2020/12/02 04:00:00;;;;;;;262.88;49.83;;;1.30;99.90;;;;;;4993327;28;20162;-76
2020/12/02 04:02:25;;;;;;;299.27;54.00;;;1.20;99.90;;;;;;5011540;28;20466;-75
2020/12/02 04:04:51;;;;;;;266.70;52.42;;;1.30;99.90;;;;;;5011413;28;20223;-76
2020/12/02 04:07:17;;;;;;;344.58;57.80;;;1.20;99.90;;;;;;5011241;28;20084;-76
2020/12/02 04:09:42;;;;;;;306.10;51.40;;;1.30;99.90;;;;;;4977622;28;20029;-76
2020/12/02 04:12:08;;;;;;;364.15;56.30;;;1.30;99.90;;;;;;5011031;28;20022;-75
2020/12/02 04:14:34;;;;;;;305.27;51.13;;;1.30;99.90;;;;;;5011743;28;20083;-75
2020/12/02 04:16:59;;;;;;;318.45;53.28;;;1.20;99.90;;;;;;5010250;28;20057;-76
2020/12/02 04:19:25;;;;;;;266.88;47.15;;;1.20;99.90;;;;;;5011260;28;20061;-75
2020/12/02 04:21:55;;;;;;;297.88;51.67;;;1.30;99.90;;;;;;5011364;28;20608;-76
2020/12/02 04:24:21;;;;;;;306.30;52.95;;;1.20;99.90;;;;;;5011082;28;20025;-75
2020/12/02 04:26:46;;;;;;;289.83;47.00;;;1.20;99.90;;;;;;5010040;28;20182;-76
2020/12/02 04:29:12;;;;;;;270.88;50.95;;;1.30;99.90;;;;;;5011067;28;20244;-75
2020/12/02 04:31:38;;;;;;;316.85;53.35;;;1.20;99.90;;;;;;5011192;28;20030;-75
2020/12/02 04:34:03;;;;;;;278.00;52.53;;;1.20;99.90;;;;;;5010310;28;20427;-75
2020/12/02 04:36:29;;;;;;;294.90;54.85;;;1.20;99.90;;;;;;4980802;28;20535;-75
2020/12/02 04:38:55;;;;;;;239.93;47.20;;;1.30;99.90;;;;;;5006859;28;20360;-76
2020/12/02 04:41:20;;;;;;;308.13;53.33;;;1.20;99.90;;;;;;5011128;28;20108;-76
2020/12/02 04:43:52;;;;;;;285.98;49.72;;;1.30;99.90;;;;;;5011211;28;20108;-75
2020/12/02 04:46:24;;;;;;;282.02;50.05;;;1.30;99.90;;;;;;5009623;28;20045;-76
2020/12/02 04:48:53;;;;;;;309.05;51.60;;;1.30;99.90;;;;;;5010596;28;20030;-76
2020/12/02 04:51:23;;;;;;;291.45;50.75;;;1.30;99.90;;;;;;5010687;28;20034;-77
2020/12/02 04:53:52;;;;;;;249.43;48.80;;;1.20;99.90;;;;;;5003124;28;20084;-75
2020/12/02 04:56:19;;;;;;;309.55;55.63;;;1.20;99.90;;;;;;5010505;28;20030;-76
2020/12/02 04:58:48;;;;;;;337.38;56.05;;;1.20;99.90;;;;;;4984606;28;20034;-76
2020/12/02 05:01:19;;;;;;;200.55;42.15;;;1.20;99.90;;;;;;5010592;28;20418;-75
2020/12/02 05:04:01;;;;;;;321.08;53.58;;;1.20;99.90;;;;;;5011014;28;20133;-75
2020/12/02 05:06:37;;;;;;;311.27;54.30;;;1.20;99.90;;;;;;4993042;28;20374;-75
2020/12/02 05:09:11;;;;;;;328.35;51.70;;;1.20;99.90;;;;;;5009957;28;20049;-75
2020/12/02 05:11:40;;;;;;;292.27;48.97;;;1.20;99.90;;;;;;5010753;28;20410;-75
2020/12/02 05:14:13;;;;;;;162.93;37.95;;;1.30;99.90;;;;;;5010015;28;20036;-75
2020/12/02 05:16:39;;;;;;;332.45;53.35;;;1.20;99.90;;;;;;5010819;28;20034;-75
2020/12/02 05:19:19;;;;;;;289.83;48.65;;;1.20;99.90;;;;;;5009593;28;20052;-75
2020/12/02 05:21:45;;;;;;;251.80;46.20;;;1.20;99.90;;;;;;4995371;28;20049;-75
2020/12/02 05:24:17;;;;;;;212.73;40.30;;;1.20;99.90;;;;;;5018437;28;20593;-75
2020/12/02 05:26:49;;;;;;;334.35;51.53;;;1.20;99.90;;;;;;5007908;28;20026;-75
2020/12/02 05:29:49;;;;;;;267.33;47.00;;;1.20;99.90;;;;;;4992216;28;20088;-75
2020/12/02 05:32:24;;;;;;;338.40;55.17;;;1.20;99.90;;;;;;4986017;28;20082;-76
2020/12/02 05:34:50;;;;;;;329.13;51.05;;;1.20;99.90;;;;;;5006573;28;20026;-76
2020/12/02 05:37:40;;;;;;;249.68;44.90;;;1.20;99.90;;;;;;5009278;28;20030;-75
2020/12/02 05:40:13;;;;;;;252.77;42.97;;;1.20;99.90;;;;;;5006116;28;20046;-75
2020/12/02 05:42:47;;;;;;;310.83;52.50;;;1.20;99.90;;;;;;5010057;28;20041;-75
2020/12/02 05:45:30;;;;;;;292.48;51.50;;;1.20;99.90;;;;;;5008792;28;20537;-75
2020/12/02 05:47:56;;;;;;;304.00;51.92;;;1.20;99.90;;;;;;5010453;28;20041;-73
2020/12/02 05:50:24;;;;;;;309.17;50.17;;;1.20;99.90;;;;;;4997154;28;20081;-76
2020/12/02 05:53:10;;;;;;;328.08;52.72;;;1.20;99.90;;;;;;5010374;28;20034;-75
2020/12/02 05:55:36;;;;;;;263.67;44.10;;;1.20;99.90;;;;;;4995540;28;20049;-76
2020/12/02 05:58:13;;;;;;;362.92;53.20;;;1.20;99.90;;;;;;5001417;28;20398;-76
2020/12/02 06:00:39;;;;;;;291.23;49.03;;;1.20;99.90;;;;;;5009337;28;20485;-75
2020/12/02 06:03:08;;;;;;;302.58;52.22;;;1.30;99.90;;;;;;5008768;28;20025;-76
2020/12/02 06:05:34;;;;;;;236.50;43.38;;;1.20;99.90;;;;;;5007814;28;20064;-74
2020/12/02 06:08:03;;;;;;;252.80;47.28;;;1.20;99.90;;;;;;5005904;28;20074;-76
2020/12/02 06:11:18;;;;;;;256.35;47.10;;;1.20;99.90;;;;;;5005238;28;20452;-76
2020/12/02 06:13:51;;;;;;;209.50;39.95;;;1.30;99.90;;;;;;5001274;28;20046;-76
2020/12/02 06:16:29;;;;;;;257.70;45.17;;;1.20;99.90;;;;;;4991546;28;20034;-76
2020/12/02 06:19:01;;;;;;;338.42;53.42;;;1.20;99.90;;;;;;4991653;28;20034;-77
2020/12/02 06:21:44;;;;;;;250.88;44.33;;;1.20;99.90;;;;;;5009425;28;20045;-75
2020/12/02 06:24:35;;;;;;;212.02;43.20;;;1.30;99.90;;;;;;5008922;28;20136;-76
2020/12/02 06:27:14;;;;;;;221.07;42.03;;;1.20;99.90;;;;;;4990170;28;20446;-77
2020/12/02 06:29:55;;;;;;;265.65;47.67;;;1.30;99.90;;;;;;4991953;28;20476;-76
2020/12/02 06:32:24;;;;;;;313.45;46.42;;;1.20;99.90;;;;;;5011647;28;20494;-76
2020/12/02 06:35:06;;;;;;;290.35;48.17;;;1.30;99.90;;;;;;4995630;28;20479;-76
2020/12/02 06:37:32;;;;;;;281.23;45.80;;;1.30;99.90;;;;;;5013527;28;20034;-76
2020/12/02 06:39:59;;;;;;;320.25;50.53;;;1.30;99.90;;;;;;5012332;28;20049;-78
2020/12/02 06:42:28;;;;;;;283.13;45.58;;;1.30;99.90;;;;;;4996679;28;20498;-79
2020/12/02 06:45:06;;;;;;;172.15;34.83;;;1.30;99.90;;;;;;5017279;28;20504;-83
2020/12/02 06:47:37;;;;;;;272.63;45.10;;;1.30;99.90;;;;;;5009220;28;20120;-77
2020/12/02 06:50:11;;;;;;;334.08;47.80;;;1.30;99.90;;;;;;5004249;28;20117;-78
2020/12/02 06:52:37;;;;;;;344.52;47.60;;;1.40;99.90;;;;;;5013843;28;20060;-78
2020/12/02 06:55:13;;;;;;;253.77;40.28;;;1.40;99.90;;;;;;5012523;28;20105;-77
2020/12/02 06:57:39;;;;;;;260.70;39.80;;;1.40;99.90;;;;;;4995695;28;20442;-79
2020/12/02 07:00:21;;;;;;;189.20;39.90;;;1.40;99.90;;;;;;5012448;28;20081;-77
2020/12/02 07:02:53;;;;;;;256.42;40.92;;;1.40;99.90;;;;;;5017829;28;20057;-76
2020/12/02 07:05:25;;;;;;;206.90;38.33;;;1.40;99.90;;;;;;5019034;28;20034;-77
2020/12/02 07:08:11;;;;;;;208.15;39.97;;;1.40;99.90;;;;;;5013019;28;20026;-79
2020/12/02 07:10:37;;;;;;;183.57;33.65;;;1.40;99.90;;;;;;5013045;28;20044;-77
2020/12/02 07:13:03;;;;;;;189.77;35.85;;;1.40;99.90;;;;;;4994930;28;20057;-77
2020/12/02 07:15:29;;;;;;;205.73;36.22;;;1.40;99.90;;;;;;5013205;28;20113;-79
2020/12/02 07:18:13;;;;;;;162.48;31.40;;;1.40;99.90;;;;;;5011889;28;20581;-80
2020/12/02 07:20:49;;;;;;;248.13;38.17;;;1.40;99.90;;;;;;5012086;28;20030;-74
2020/12/02 07:23:19;;;;;;;226.90;38.75;;;1.40;99.90;;;;;;5011559;28;20054;-74
2020/12/02 07:25:45;;;;;;;286.27;42.95;;;1.40;99.90;;;;;;5004457;28;20033;-74
2020/12/02 07:28:19;;;;;;;219.95;36.72;;;1.40;99.90;;;;;;5011712;28;20098;-74
2020/12/02 07:30:46;;;;;;;222.48;36.92;;;1.40;99.90;;;;;;5010604;28;20368;-74
2020/12/02 07:33:30;;;;;;;154.10;33.90;;;1.40;99.90;;;;;;5011742;28;20090;-74
2020/12/02 07:36:16;;;;;;;237.52;40.78;;;1.40;99.90;;;;;;5003154;28;20537;-80
2020/12/02 07:38:43;;;;;;;183.43;32.30;;;1.40;99.90;;;;;;4988882;28;20065;-70
2020/12/02 07:41:16;;;;;;;202.77;33.28;;;1.40;99.90;;;;;;5009967;28;20052;-70
2020/12/02 07:43:46;;;;;;;164.30;33.08;;;1.60;99.90;;;;;;5004901;28;20117;-70
2020/12/02 07:46:13;;;;;;;220.80;34.05;;;1.70;99.90;;;;;;5009656;28;20038;-70
2020/12/02 07:48:40;;;;;;;133.40;29.75;;;1.70;99.90;;;;;;5012217;28;20562;-78
2020/12/02 07:51:08;;;;;;;80.00;26.05;;;1.70;99.90;;;;;;5010489;28;20036;-74
2020/12/02 07:53:43;;;;;;;281.38;43.08;;;1.70;99.90;;;;;;5011445;28;21707;-76
2020/12/02 07:56:21;;;;;;;285.63;39.03;;;1.70;99.90;;;;;;5010539;28;20440;-77
2020/12/02 07:58:48;;;;;;;322.98;44.65;;;1.70;99.90;;;;;;5009544;28;20030;-73
2020/12/02 08:01:36;;;;;;;281.58;42.45;;;1.70;99.90;;;;;;4999125;28;20046;-76
2020/12/02 08:04:20;;;;;;;221.63;39.45;;;1.70;99.90;;;;;;5010321;28;20066;-74
2020/12/02 08:06:47;;;;;;;247.60;37.63;;;1.80;99.90;;;;;;5011371;28;20092;-74
2020/12/02 08:09:12;;;;;;;287.45;44.53;;;1.70;99.90;;;;;;5010709;28;20099;-75
2020/12/02 08:12:10;;;;;;;294.42;45.55;;;1.80;99.90;;;;;;5010885;28;20041;-76
2020/12/02 08:14:42;;;;;;;174.93;36.28;;;1.80;99.90;;;;;;4988706;28;20049;-75
2020/12/02 08:17:16;;;;;;;257.50;44.00;;;1.80;99.90;;;;;;4997330;28;20050;-78
2020/12/02 08:19:45;;;;;;;307.88;48.47;;;1.80;99.90;;;;;;5011519;28;20387;-74
2020/12/02 08:22:32;;;;;;;294.65;45.35;;;1.70;99.90;;;;;;5011450;28;20038;-80
2020/12/02 08:25:13;;;;;;;203.75;39.78;;;1.80;99.90;;;;;;5011389;28;20097;-74
2020/12/02 08:27:40;;;;;;;348.00;51.50;;;1.80;99.90;;;;;;5011605;28;20045;-77
2020/12/02 08:30:16;;;;;;;289.55;47.72;;;1.70;99.90;;;;;;5011157;28;20483;-74
2020/12/02 08:32:50;;;;;;;289.40;43.88;;;1.70;99.90;;;;;;5006156;28;20041;-83
2020/12/02 08:35:45;;;;;;;244.48;40.47;;;1.70;99.90;;;;;;5011123;28;20037;-73
2020/12/02 08:38:15;;;;;;;189.23;37.83;;;1.70;99.90;;;;;;5011459;28;20464;-73
2020/12/02 08:40:49;;;;;;;265.45;43.47;;;1.70;99.90;;;;;;4994007;28;20033;-76
2020/12/02 08:43:29;;;;;;;285.00;42.63;;;1.70;99.90;;;;;;4989462;28;20556;-70
2020/12/02 16:40:30;;;;;;;16.42;5.88;;;21.20;50.30;;;;;;5100818;27;20419;-59
2020/12/02 16:43:31;;;;;;;12.68;4.53;;;20.90;51.90;;;;;;5103722;28;20063;-59
2020/12/02 16:46:20;;;;;;;22.08;5.70;;;20.80;52.40;;;;;;5075089;28;20043;-62
2020/12/02 16:49:29;;;;;;;24.38;5.53;;;20.70;48.90;;;;;;5087285;28;20071;-61
2020/12/02 17:16:30;;;;;;;1.60;1.50;;;23.80;64.60;;;;;;5063262;28;20378;-44
2020/12/02 17:19:14;;;;;;;1.42;1.10;;;23.50;67.90;;;;;;5046820;28;20489;-44
